TAF

SANTO DOMINGO 20 DE OCTUBRE DEL 2020

                                                                                               AEROP. INT. LAS AMERICAS JFPG-

FTDR31 MDSD 201600Z
TAF 

TAF MDPP 201600Z 2018/2118 06012KT 9999 SCT022 BECMG 2101/2103 00000KT=

TAF MDST 201600Z 2018/2118 15010KT 9999 FEW020  PROB30 2018/2100 8000- TSRA FEW018CB SCT018 BKN300   

TAF MDPC 201600Z 2018/2118 05005KT 9999 FEW022=

TAF MDBH 201600Z 2018/2118 13012KT 9999 FEW018CB SCT022 PROB30 2023/2105 7000 -TSRA FEW016CB BKN018=

TAF MDJB 201600Z 2018/2118 18010KT 9999 SCT020 FM 210000 00000KT 9999 PROB30 TEMPO 2100 2104 6000 –TSRA FEW016CB BKN018 BECMG 2113 2115 04005KT =  

TAF MDSD 201600Z 2018/2118 15008KT 9999 SCT023=

TAF MDLR  201600Z 2018/ 2118 08008KT 9999 SCT018 PROB30 2018/2100 7000 -RA BKN020 BECMG 2100/2102 00000KT=

TAF MDCY 201600Z 2018/2118 04007KT 9999 FEW026=

MDPP AEROPUERTO INTERNACIONAL LA UNION PUERTO PLATA

MDST AEROPUERTO INTERNACIONAL DE SANTIAGO

MDPC AEROPUERTO INTERNACIONAL PUNTA CANA

MDBH AEROPUERTO INTERNACIONAL DE BARAHONA

MDJB AEROPUERTO INTERNACIONAL JOAQUIN BALAGUER

MDSD AEROPUERTO INTERNACIONAL LAS AMERICAS

MDLR AEROPUERTO INTERNACIONAL LA ROMANA

MDCY AEROPUERTO INTERNACIONAL DE CATEY

 

 

MDPP// OSVALDO GUZMAN

MDST// ALFREDO SANDERS

MDPC// M. OTAÑEZ

MDBH//FELIPE MEDINA

MDJB//JORGE COLON

MDSD//FELICIA MARTINEZ

MDLR//AMOS ESPINOSA

MDCY//DOMINGO FLORENTINO